Pacific Dawn — 2AGH7 — position and weather

sailwx.info

Track history (hours):
 
Tides and Currents Weather Stations Pressure Air Temp Water Temp Dewpoint Dewpoint Depression Visibility Wind Speed Wind Dir Waves Ship Positions

Pacific Dawn

Last reported at 2019-Sep-17 00:00 UTC. Time now 2019-Sep-17 08:21 UTC.
Position S 20°48' E 167°06'.

Length 245 m; draft 8.4 m.

Type: Passenger vessel. MMSI: 235059368.

Wind from 060 at 22 knots

Barometer 1020.3 mb
Air temperature 21.0 ° C
Visibility: greater than 10.8 NM
Dewpoint 14.2 ° C
Water temperature 24.7 ° C

Date/timePositionNaut miles runAvg speedWind from/ knotsBaromVisibWave heightAir tempDewpointWater temp
2019-Sep-17 00:00S 20°48' E 167°06'25 3.5 060 / 221020.310.8 21.014.224.7
2019-Sep-16 17:00S 21°12' E 167°00'7314.0 120 / 201019.310.8 21.014.224.7
2019-Sep-16 11:48S 22°24' E 166°47'518.2
2019-Sep-16 11:30S 22°23' E 166°41'918.0
2019-Sep-16 11:00S 22°21' E 166°32'714.3
2019-Sep-16 10:30S 22°17' E 166°25'1 2.7
2019-Sep-16 09:59S 22°16' E 166°26'0 0.0
2019-Sep-16 09:29S 22°16' E 166°26'0 0.0
2019-Sep-16 08:59S 22°16' E 166°26'0 0.0
2019-Sep-16 08:29S 22°16' E 166°26'0 0.0
2019-Sep-16 07:59S 22°16' E 166°26'0 0.0
2019-Sep-16 07:29S 22°16' E 166°26'0 0.0
2019-Sep-16 06:59S 22°16' E 166°26'0 0.0
2019-Sep-16 06:29S 22°16' E 166°26'0 0.0
2019-Sep-16 05:59S 22°16' E 166°26'0 0.0
2019-Sep-16 05:29S 22°16' E 166°26'0 0.0
2019-Sep-16 04:59S 22°16' E 166°26'0 0.0
2019-Sep-16 04:29S 22°16' E 166°26'0 0.0
2019-Sep-16 03:59S 22°16' E 166°26'0 0.3
2019-Sep-16 03:31S 22°16' E 166°26'510.8
2019-Sep-16 03:00S 22°18' E 166°21'714.0
2019-Sep-16 02:30S 22°22' E 166°14'714.6
2019-Sep-16 02:00S 22°27' E 166°08'3618.1
2019-Sep-16 00:00S 22°36' E 165°30'7114.1 140 / 241021.610.8 22.015.322.8
2019-Sep-15 19:00S 23°00' E 164°18'13519.3 130 / 151021.610.8 20.010.922.8
2019-Sep-15 12:00S 23°48' E 162°00'9315.4 180 / 251021.610.8 19.015.622.8
2019-Sep-15 06:00S 24°18' E 160°24'15425.7 170 / 201020.910.8 20.014.922.8
2019-Sep-15 00:00S 25°48' E 158°06'20717.3 170 / 251021.510.8 23.018.323.0
2019-Sep-14 12:00S 26°18' E 154°18'3018.7 250 / 61019.510.8 21.016.023.0
2019-Sep-14 10:24S 26°31' E 153°48'718.2
2019-Sep-14 10:00S 26°33' E 153°40'918.3
2019-Sep-14 09:30S 26°36' E 153°31'918.4
2019-Sep-14 09:00S 26°40' E 153°21'917.5
2019-Sep-14 08:30S 26°42' E 153°12'611.0
2019-Sep-14 07:56S 26°48' E 153°11'512.8
2019-Sep-14 07:30S 26°54' E 153°11'816.5
2019-Sep-14 07:00S 27°01' E 153°15'8464.3
2019-Sep-14 07:00S 26°54' E 153°12'1531.6 020 / 181018.010.8 20.020.020.1
2019-Sep-14 06:30S 27°07' E 153°21'815.9
2019-Sep-14 06:00S 27°15' E 153°19'815.2
2019-Sep-14 05:30S 27°20' E 153°12'510.7
2019-Sep-14 05:01S 27°24' E 153°09'4 7.1
2019-Sep-14 04:30S 27°27' E 153°06'2 3.2
2019-Sep-14 03:58S 27°26' E 153°04'0 0.0
2019-Sep-14 03:28S 27°26' E 153°04'0 0.0
2019-Sep-14 02:58S 27°26' E 153°04'0 0.0
2019-Sep-14 02:22S 27°26' E 153°04'0 0.0
2019-Sep-14 01:58S 27°26' E 153°04'0 0.0
2019-Sep-14 01:19S 27°26' E 153°04'0 0.0
2019-Sep-14 00:58S 27°26' E 153°04'0 0.0
2019-Sep-14 00:28S 27°26' E 153°04'0 0.0
2019-Sep-13 23:58S 27°26' E 153°04'0 0.0
2019-Sep-13 23:28S 27°26' E 153°04'0 0.0
2019-Sep-13 22:52S 27°26' E 153°04'0 0.0
2019-Sep-13 22:25S 27°26' E 153°04'0 0.0
2019-Sep-13 21:46S 27°26' E 153°04'0 0.0
2019-Sep-13 21:28S 27°26' E 153°04'0 0.0
2019-Sep-13 20:34S 27°26' E 153°04'0 0.0
2019-Sep-13 20:28S 27°26' E 153°04'0 0.0
2019-Sep-13 19:37S 27°26' E 153°04'0 0.2
2019-Sep-13 19:30S 27°26' E 153°04'3 5.1
2019-Sep-13 19:00S 27°26' E 153°07'4 7.0
2019-Sep-13 18:30S 27°23' E 153°09'510.4
2019-Sep-13 18:00S 27°19' E 153°12'816.6
2019-Sep-13 17:30S 27°14' E 153°20'815.9
2019-Sep-13 17:00S 27°06' E 153°19'815.5
2019-Sep-13 16:30S 27°00' E 153°14'816.4
2019-Sep-13 16:00S 26°53' E 153°10'713.6
2019-Sep-13 15:30S 26°46' E 153°11'510.9
2019-Sep-13 15:00S 26°41' E 153°13'816.1
2019-Sep-13 14:31S 26°34' E 153°18'36617.0
2019-Sep-12 17:00S 20°30' E 152°36'7719.2 110 / 201015.010.8 22.017.223.0
2019-Sep-12 13:00S 19°24' E 151°54'12816.0 110 / 251020.510.8 21.019.425.5
2019-Sep-12 05:00S 17°24' E 151°06'6716.8 120 / 251012.910.8 23.016.523.0
2019-Sep-12 01:00S 16°30' E 150°24'10016.6 140 / 251015.210.8 23.018.325.5
2019-Sep-11 19:00S 16°12' E 148°42'156 6.0 140 / 351016.910.8 24.119.326.1
2019-Sep-10 17:00S 16°18' E 146°00'103 4.3 140 / 271014.910.8 22.015.323.0
2019-Sep-09 17:00S 18°00' E 146°18'38210.6 310 / 201012.010.8 20.014.923.0
2019-Sep-08 05:00S 22°18' E 151°18'17514.6 070 / 91009.910.8 21.0 7.523.0
2019-Sep-07 17:00S 24°24' E 153°30'13818.0 280 / 301009.910.8 21.010.024.0
2019-Sep-07 09:19S 26°41' E 153°13'812.2
2019-Sep-07 08:41S 26°49' E 153°10'213.1
2019-Sep-07 08:30S 26°51' E 153°09'917.2
2019-Sep-07 08:00S 26°58' E 153°14'816.1
2019-Sep-07 07:31S 27°05' E 153°19'816.3
2019-Sep-07 07:01S 27°13' E 153°20'816.7
2019-Sep-07 06:31S 27°18' E 153°13'611.2
2019-Sep-07 06:00S 27°23' E 153°10'0 0.2
2019-Sep-07 05:30S 27°23' E 153°10'0 0.0
2019-Sep-07 05:00S 27°23' E 153°10'0 0.0
2019-Sep-07 04:30S 27°23' E 153°10'0 0.0
2019-Sep-07 04:00S 27°23' E 153°10'0 0.0
2019-Sep-07 03:27S 27°23' E 153°10'0 0.0
2019-Sep-07 03:00S 27°23' E 153°10'0 0.0
2019-Sep-07 02:30S 27°23' E 153°10'0 0.0
2019-Sep-07 02:00S 27°23' E 153°10'0 0.0
2019-Sep-07 01:30S 27°23' E 153°10'0 0.0
2019-Sep-07 01:00S 27°23' E 153°10'0 0.0
2019-Sep-07 00:30S 27°23' E 153°10'0 0.0
2019-Sep-07 00:00S 27°23' E 153°10'  
Track history (hours):
 
Tides and Currents Weather Stations Pressure Air Temp Water Temp Dewpoint Dewpoint Depression Visibility Wind Speed Wind Dir Waves Ship Positions

Pacific Dawn

Last reported at 2019-Sep-17 00:00 UTC. Time now 2019-Sep-17 08:21 UTC.
Position S 20°48' E 167°06'.

Length 245 m; draft 8.4 m.

Type: Passenger vessel. MMSI: 235059368.

Wind from 060 at 22 knots

Barometer 1020.3 mb
Air temperature 21.0 ° C
Visibility: greater than 10.8 NM
Dewpoint 14.2 ° C
Water temperature 24.7 ° C

Date/timePositionNaut miles runAvg speedWind from/ knotsBaromVisibWave heightAir tempDewpointWater temp
2019-Sep-17 00:00S 20°48' E 167°06'25 3.5 060 / 221020.310.8 21.014.224.7
2019-Sep-16 17:00S 21°12' E 167°00'7314.0 120 / 201019.310.8 21.014.224.7
2019-Sep-16 11:48S 22°24' E 166°47'518.2
2019-Sep-16 11:30S 22°23' E 166°41'918.0
2019-Sep-16 11:00S 22°21' E 166°32'714.3
2019-Sep-16 10:30S 22°17' E 166°25'1 2.7
2019-Sep-16 09:59S 22°16' E 166°26'0 0.0
2019-Sep-16 09:29S 22°16' E 166°26'0 0.0
2019-Sep-16 08:59S 22°16' E 166°26'0 0.0
2019-Sep-16 08:29S 22°16' E 166°26'0 0.0
2019-Sep-16 07:59S 22°16' E 166°26'0 0.0
2019-Sep-16 07:29S 22°16' E 166°26'0 0.0
2019-Sep-16 06:59S 22°16' E 166°26'0 0.0
2019-Sep-16 06:29S 22°16' E 166°26'0 0.0
2019-Sep-16 05:59S 22°16' E 166°26'0 0.0
2019-Sep-16 05:29S 22°16' E 166°26'0 0.0
2019-Sep-16 04:59S 22°16' E 166°26'0 0.0
2019-Sep-16 04:29S 22°16' E 166°26'0 0.0
2019-Sep-16 03:59S 22°16' E 166°26'0 0.3
2019-Sep-16 03:31S 22°16' E 166°26'510.8
2019-Sep-16 03:00S 22°18' E 166°21'714.0
2019-Sep-16 02:30S 22°22' E 166°14'714.6
2019-Sep-16 02:00S 22°27' E 166°08'3618.1
2019-Sep-16 00:00S 22°36' E 165°30'7114.1 140 / 241021.610.8 22.015.322.8
2019-Sep-15 19:00S 23°00' E 164°18'13519.3 130 / 151021.610.8 20.010.922.8
2019-Sep-15 12:00S 23°48' E 162°00'9315.4 180 / 251021.610.8 19.015.622.8
2019-Sep-15 06:00S 24°18' E 160°24'15425.7 170 / 201020.910.8 20.014.922.8
2019-Sep-15 00:00S 25°48' E 158°06'20717.3 170 / 251021.510.8 23.018.323.0
2019-Sep-14 12:00S 26°18' E 154°18'3018.7 250 / 61019.510.8 21.016.023.0
2019-Sep-14 10:24S 26°31' E 153°48'718.2
2019-Sep-14 10:00S 26°33' E 153°40'918.3
2019-Sep-14 09:30S 26°36' E 153°31'918.4
2019-Sep-14 09:00S 26°40' E 153°21'917.5
2019-Sep-14 08:30S 26°42' E 153°12'611.0
2019-Sep-14 07:56S 26°48' E 153°11'512.8
2019-Sep-14 07:30S 26°54' E 153°11'816.5
2019-Sep-14 07:00S 27°01' E 153°15'8464.3
2019-Sep-14 07:00S 26°54' E 153°12'1531.6 020 / 181018.010.8 20.020.020.1
2019-Sep-14 06:30S 27°07' E 153°21'815.9
2019-Sep-14 06:00S 27°15' E 153°19'815.2
2019-Sep-14 05:30S 27°20' E 153°12'510.7
2019-Sep-14 05:01S 27°24' E 153°09'4 7.1
2019-Sep-14 04:30S 27°27' E 153°06'2 3.2
2019-Sep-14 03:58S 27°26' E 153°04'0 0.0
2019-Sep-14 03:28S 27°26' E 153°04'0 0.0
2019-Sep-14 02:58S 27°26' E 153°04'0 0.0
2019-Sep-14 02:22S 27°26' E 153°04'0 0.0
2019-Sep-14 01:58S 27°26' E 153°04'0 0.0
2019-Sep-14 01:19S 27°26' E 153°04'0 0.0
2019-Sep-14 00:58S 27°26' E 153°04'0 0.0
2019-Sep-14 00:28S 27°26' E 153°04'0 0.0
2019-Sep-13 23:58S 27°26' E 153°04'0 0.0
2019-Sep-13 23:28S 27°26' E 153°04'0 0.0
2019-Sep-13 22:52S 27°26' E 153°04'0 0.0
2019-Sep-13 22:25S 27°26' E 153°04'0 0.0
2019-Sep-13 21:46S 27°26' E 153°04'0 0.0
2019-Sep-13 21:28S 27°26' E 153°04'0 0.0
2019-Sep-13 20:34S 27°26' E 153°04'0 0.0
2019-Sep-13 20:28S 27°26' E 153°04'0 0.0
2019-Sep-13 19:37S 27°26' E 153°04'0 0.2
2019-Sep-13 19:30S 27°26' E 153°04'3 5.1
2019-Sep-13 19:00S 27°26' E 153°07'4 7.0
2019-Sep-13 18:30S 27°23' E 153°09'510.4
2019-Sep-13 18:00S 27°19' E 153°12'816.6
2019-Sep-13 17:30S 27°14' E 153°20'815.9
2019-Sep-13 17:00S 27°06' E 153°19'815.5
2019-Sep-13 16:30S 27°00' E 153°14'816.4
2019-Sep-13 16:00S 26°53' E 153°10'713.6
2019-Sep-13 15:30S 26°46' E 153°11'510.9
2019-Sep-13 15:00S 26°41' E 153°13'816.1
2019-Sep-13 14:31S 26°34' E 153°18'36617.0
2019-Sep-12 17:00S 20°30' E 152°36'7719.2 110 / 201015.010.8 22.017.223.0
2019-Sep-12 13:00S 19°24' E 151°54'12816.0 110 / 251020.510.8 21.019.425.5
2019-Sep-12 05:00S 17°24' E 151°06'6716.8 120 / 251012.910.8 23.016.523.0
2019-Sep-12 01:00S 16°30' E 150°24'10016.6 140 / 251015.210.8 23.018.325.5
2019-Sep-11 19:00S 16°12' E 148°42'156 6.0 140 / 351016.910.8 24.119.326.1
2019-Sep-10 17:00S 16°18' E 146°00'103 4.3 140 / 271014.910.8 22.015.323.0
2019-Sep-09 17:00S 18°00' E 146°18'38210.6 310 / 201012.010.8 20.014.923.0
2019-Sep-08 05:00S 22°18' E 151°18'17514.6 070 / 91009.910.8 21.0 7.523.0
2019-Sep-07 17:00S 24°24' E 153°30'13818.0 280 / 301009.910.8 21.010.024.0
2019-Sep-07 09:19S 26°41' E 153°13'812.2
2019-Sep-07 08:41S 26°49' E 153°10'213.1
2019-Sep-07 08:30S 26°51' E 153°09'917.2
2019-Sep-07 08:00S 26°58' E 153°14'816.1
2019-Sep-07 07:31S 27°05' E 153°19'816.3
2019-Sep-07 07:01S 27°13' E 153°20'816.7
2019-Sep-07 06:31S 27°18' E 153°13'611.2
2019-Sep-07 06:00S 27°23' E 153°10'0 0.2
2019-Sep-07 05:30S 27°23' E 153°10'0 0.0
2019-Sep-07 05:00S 27°23' E 153°10'0 0.0
2019-Sep-07 04:30S 27°23' E 153°10'0 0.0
2019-Sep-07 04:00S 27°23' E 153°10'0 0.0
2019-Sep-07 03:27S 27°23' E 153°10'0 0.0
2019-Sep-07 03:00S 27°23' E 153°10'0 0.0
2019-Sep-07 02:30S 27°23' E 153°10'0 0.0
2019-Sep-07 02:00S 27°23' E 153°10'0 0.0
2019-Sep-07 01:30S 27°23' E 153°10'0 0.0
2019-Sep-07 01:00S 27°23' E 153°10'0 0.0
2019-Sep-07 00:30S 27°23' E 153°10'0 0.0
2019-Sep-07 00:00S 27°23' E 153°10'  

Dump ship's entire track history